createdAt,value
2019-03-01T00:00:03.958Z,131.77
2019-03-01T00:05:58.384Z,144.53
2019-03-01T00:09:06.698Z,140.10
2019-03-01T00:12:13.698Z,137.67
2019-03-01T00:15:22.024Z,138.57
2019-03-01T00:18:29.014Z,131.47
2019-03-01T00:21:37.390Z,134.87
2019-03-01T00:24:44.379Z,138.97
2019-03-01T00:27:52.697Z,131.93
2019-03-01T00:30:59.699Z,135.00
2019-03-01T00:34:06.705Z,142.57
2019-03-01T00:37:15.081Z,141.67
2019-03-01T00:40:22.068Z,142.57
2019-03-01T00:43:30.391Z,132.40
2019-03-01T00:45:58.804Z,126.33
2019-03-01T00:48:46.321Z,134.20
2019-03-01T00:51:14.739Z,138.57
2019-03-01T00:54:02.386Z,138.87
2019-03-01T00:56:30.798Z,141.13
2019-03-01T00:59:18.321Z,133.07
2019-03-01T01:01:46.739Z,139.23
2019-03-01T01:04:15.147Z,130.97
2019-03-01T01:06:43.561Z,131.73
2019-03-01T01:09:12.216Z,133.07
2019-03-01T01:11:40.631Z,137.27
2019-03-01T01:14:09.033Z,122.07
2019-03-01T01:16:37.450Z,131.87
2019-03-01T01:19:24.966Z,134.20
2019-03-01T01:22:33.286Z,131.47
2019-03-01T01:25:20.802Z,137.27
2019-03-01T01:27:49.231Z,139.27
2019-03-01T01:30:17.632Z,133.00
2019-03-01T01:32:46.053Z,133.90
2019-03-01T01:35:33.704Z,135.50
2019-03-01T01:38:02.122Z,130.10
2019-03-01T01:40:49.879Z,134.30
2019-03-01T01:43:18.289Z,123.77
2019-03-01T01:46:05.942Z,146.83
2019-03-01T01:48:53.607Z,144.37
2019-03-01T01:51:22.010Z,127.30
2019-03-01T01:54:09.539Z,138.30
2019-03-01T01:59:31.138Z,118.27
2019-03-01T02:02:18.803Z,126.20
2019-03-01T02:05:06.470Z,138.70
2019-03-01T02:07:53.994Z,122.57
2019-03-01T02:11:02.299Z,122.93
2019-03-01T02:13:49.831Z,117.33
2019-03-01T02:16:18.240Z,130.40
2019-03-01T02:19:05.897Z,136.80
2019-03-01T02:21:34.301Z,140.00
2019-03-01T02:24:02.716Z,133.27
2019-03-01T02:26:50.369Z,129.20
2019-03-01T02:29:18.789Z,131.33
2019-03-01T02:31:59.644Z,135.40
2019-03-01T02:34:28.061Z,124.87
2019-03-01T02:37:15.591Z,130.57
2019-03-01T02:40:03.114Z,133.33
2019-03-01T02:42:31.529Z,147.37
2019-03-01T02:44:59.936Z,140.20
2019-03-01T02:47:47.593Z,123.20
2019-03-01T02:50:35.365Z,122.13
2019-03-01T02:53:22.998Z,125.00
2019-03-01T02:55:51.414Z,148.07
2019-03-01T02:58:39.083Z,136.40
2019-03-01T03:01:26.602Z,149.00
2019-03-01T03:04:14.131Z,150.30
2019-03-01T03:09:50.864Z,148.37
2019-03-01T03:15:46.671Z,177.77
2019-03-01T03:18:15.060Z,159.50
2019-03-01T03:21:02.706Z,149.40
2019-03-01T03:23:31.120Z,134.43
2019-03-01T03:25:59.545Z,162.37
2019-03-01T03:28:47.273Z,161.80
2019-03-01T03:31:15.689Z,148.70
2019-03-01T03:33:44.121Z,148.67
2019-03-01T03:36:31.763Z,142.57
2019-03-01T03:39:19.296Z,148.90
2019-03-01T03:41:47.697Z,145.73
2019-03-01T03:44:35.360Z,156.73
2019-03-01T03:47:22.877Z,151.93
2019-03-01T03:52:26.882Z,156.27
2019-03-01T03:55:14.552Z,175.73
2019-03-01T03:58:22.866Z,156.40
2019-03-01T04:00:51.279Z,142.80
2019-03-01T04:03:20.026Z,153.60
2019-03-01T04:05:48.441Z,166.63
2019-03-01T04:08:16.848Z,155.87
2019-03-01T04:10:45.269Z,159.97
2019-03-01T04:13:13.675Z,149.10
2019-03-01T04:15:42.448Z,135.17
2019-03-01T04:18:30.178Z,133.40
2019-03-01T04:21:17.841Z,138.53
2019-03-01T04:23:46.255Z,144.77
2019-03-01T04:37:10.146Z,142.33
2019-03-01T04:39:57.671Z,133.57
2019-03-01T04:42:26.084Z,128.53
2019-03-01T04:44:54.511Z,130.20
2019-03-01T04:47:22.924Z,141.50
2019-03-01T04:50:10.593Z,139.60
2019-03-01T04:53:18.898Z,155.60
2019-03-01T04:56:06.583Z,155.23
2019-03-01T04:58:54.108Z,151.47
2019-03-01T05:01:22.538Z,162.57
2019-03-01T05:03:50.953Z,161.27
2019-03-01T05:06:19.359Z,173.53
2019-03-01T05:08:48.123Z,158.70
2019-03-01T05:11:35.801Z,176.50
2019-03-01T05:14:44.117Z,182.70
2019-03-01T05:17:31.786Z,182.73
2019-03-01T05:20:19.319Z,133.53
2019-03-01T05:22:47.735Z,132.30
2019-03-01T05:25:16.155Z,139.70
2019-03-01T05:28:03.714Z,130.50
2019-03-01T05:30:32.149Z,153.37
2019-03-01T05:33:19.671Z,150.60
2019-03-01T05:36:07.367Z,157.23
2019-03-01T05:38:55.043Z,157.23
2019-03-01T05:41:42.710Z,147.30
2019-03-01T05:46:58.601Z,169.33
2019-03-01T05:49:27.015Z,147.47
2019-03-01T05:52:14.567Z,153.97
2019-03-01T05:54:42.972Z,166.97
2019-03-01T05:57:11.394Z,170.97
2019-03-01T05:59:39.796Z,163.00
2019-03-01T06:02:48.121Z,145.13
2019-03-01T06:05:16.529Z,139.63
2019-03-01T06:08:24.903Z,155.77
2019-03-01T06:11:33.232Z,159.50
2019-03-01T06:14:40.217Z,211.57
2019-03-01T06:17:47.219Z,190.13
2019-03-01T06:20:55.587Z,242.80
2019-03-01T06:24:03.910Z,237.63
2019-03-01T06:27:12.231Z,259.70
2019-03-01T06:30:19.244Z,252.57
2019-03-01T06:33:26.303Z,248.70
2019-03-01T06:36:34.628Z,252.87
2019-03-01T06:39:43.000Z,260.97
2019-03-01T06:42:50.006Z,256.57
2019-03-01T06:45:57.005Z,247.60
2019-03-01T06:54:18.455Z,201.17
2019-03-01T06:57:06.130Z,197.67
2019-03-01T06:59:34.537Z,196.87
2019-03-01T07:04:52.038Z,194.13
2019-03-01T07:07:20.455Z,207.60
2019-03-01T07:09:48.863Z,209.73
2019-03-01T07:12:36.526Z,199.80
2019-03-01T07:15:44.835Z,203.23
2019-03-01T07:18:32.498Z,213.80
2019-03-01T07:21:00.902Z,204.53
2019-03-01T07:23:48.430Z,206.70
2019-03-01T07:26:16.839Z,202.93
2019-03-01T07:31:19.751Z,223.37
2019-03-01T07:34:07.284Z,213.60
2019-03-01T07:36:35.687Z,208.80
2019-03-01T07:39:25.232Z,206.10
2019-03-01T07:41:53.594Z,237.37
2019-03-01T07:44:41.255Z,273.90
2019-03-01T07:47:09.662Z,261.33
2019-03-01T07:49:38.077Z,266.20
2019-03-01T07:52:06.477Z,320.07
2019-03-01T07:54:54.008Z,217.20
2019-03-01T07:57:22.414Z,209.30
2019-03-01T08:00:14.061Z,150.40
2019-03-01T08:03:22.665Z,133.73
2019-03-01T08:05:51.070Z,118.67
2019-03-01T08:10:56.340Z,130.13
2019-03-01T08:13:43.419Z,110.47
2019-03-01T08:16:11.827Z,114.30
2019-03-01T08:18:44.172Z,87.77
2019-03-01T08:21:11.423Z,80.33
2019-03-01T08:23:40.492Z,66.03
2019-03-01T08:26:08.895Z,71.30
2019-03-01T08:28:37.309Z,71.70
2019-03-01T08:31:05.701Z,57.90
2019-03-01T08:33:34.108Z,55.43
2019-03-01T08:36:21.626Z,51.50
2019-03-01T08:38:50.037Z,45.03
2019-03-01T08:41:37.550Z,49.57
2019-03-01T08:44:06.271Z,50.37
2019-03-01T08:46:34.668Z,33.70
2019-03-01T08:49:03.078Z,40.90
2019-03-01T08:54:38.277Z,42.10
2019-03-01T08:57:06.677Z,46.50
2019-03-01T08:59:54.329Z,39.67
2019-03-01T09:02:22.732Z,36.77
2019-03-01T09:04:51.353Z,45.47
2019-03-01T09:07:21.271Z,42.67
2019-03-01T09:10:32.666Z,31.27
2019-03-01T09:15:49.484Z,37.43
2019-03-01T09:18:17.313Z,44.50
2019-03-01T09:21:25.634Z,36.60
2019-03-01T09:23:55.101Z,32.87
2019-03-01T09:26:24.168Z,36.17
2019-03-01T09:29:13.039Z,44.90
2019-03-01T09:32:01.084Z,41.43
2019-03-01T09:37:22.578Z,34.77
2019-03-01T09:40:10.113Z,36.50
2019-03-01T09:42:57.761Z,37.30
2019-03-01T09:45:35.633Z,32.60
2019-03-01T09:51:02.861Z,35.07
2019-03-01T09:53:34.046Z,32.43
2019-03-01T09:56:01.399Z,30.27
2019-03-01T09:58:29.801Z,27.70
2019-03-01T10:01:38.126Z,34.77
2019-03-01T10:06:54.248Z,25.50
2019-03-01T10:12:10.099Z,31.90
2019-03-01T10:14:38.496Z,33.47
2019-03-01T10:22:58.142Z,29.20
2019-03-01T10:25:26.633Z,31.63
2019-03-01T10:28:14.189Z,38.40
2019-03-01T10:30:42.643Z,31.97
2019-03-01T10:33:11.075Z,42.33
2019-03-01T10:35:58.633Z,31.83
2019-03-01T10:38:46.296Z,36.73
2019-03-01T10:41:14.731Z,40.60
2019-03-01T10:43:43.145Z,39.60
2019-03-01T10:46:11.601Z,38.90
2019-03-01T10:48:40.013Z,37.33
2019-03-01T10:51:27.552Z,28.80
2019-03-01T10:53:55.949Z,22.83
2019-03-01T10:56:43.615Z,28.90
2019-03-01T10:59:31.266Z,25.03
2019-03-01T11:01:59.679Z,22.90
2019-03-01T11:04:28.070Z,17.13
2019-03-01T11:07:36.380Z,14.27
2019-03-01T11:10:44.693Z,16.90
2019-03-01T11:13:53.007Z,21.30
2019-03-01T11:19:08.847Z,9.97
2019-03-01T11:21:37.277Z,14.23
2019-03-01T11:27:15.517Z,23.53
2019-03-01T11:29:43.971Z,14.03
2019-03-01T11:32:31.485Z,17.80
2019-03-01T11:35:19.127Z,12.43
2019-03-01T11:37:47.544Z,14.30
2019-03-01T11:40:56.003Z,9.30
2019-03-01T11:43:45.161Z,18.83
2019-03-01T11:46:32.820Z,11.57
2019-03-01T11:49:20.367Z,11.30
2019-03-01T11:51:48.761Z,11.13
2019-03-01T11:54:36.440Z,9.23
2019-03-01T11:57:04.869Z,13.17
2019-03-01T11:59:33.303Z,8.70
2019-03-01T12:02:01.725Z,14.03
2019-03-01T12:04:49.499Z,11.10
2019-03-01T12:07:17.900Z,10.33
2019-03-01T12:10:05.590Z,12.10
2019-03-01T12:12:34.021Z,9.23
2019-03-01T12:15:02.464Z,9.40
2019-03-01T12:20:58.244Z,6.83
2019-03-01T12:23:45.894Z,5.40
2019-03-01T12:26:33.423Z,10.60
2019-03-01T12:29:01.842Z,8.63
2019-03-01T12:31:49.620Z,7.53
2019-03-01T12:34:37.363Z,5.00
2019-03-01T12:37:05.771Z,5.53
2019-03-01T12:39:53.328Z,6.23
2019-03-01T12:42:21.738Z,5.63
2019-03-01T12:45:09.277Z,8.63
2019-03-01T12:47:56.950Z,6.53
2019-03-01T12:50:25.363Z,4.53
2019-03-01T12:52:53.833Z,3.40
2019-03-01T12:56:02.159Z,4.90
2019-03-01T12:58:30.563Z,7.30
2019-03-01T13:03:46.407Z,8.30
2019-03-01T13:06:35.482Z,4.73
2019-03-01T13:09:44.071Z,9.87
2019-03-01T13:12:12.467Z,14.60
2019-03-01T13:15:00.179Z,12.90
2019-03-01T13:17:30.230Z,9.00
2019-03-01T13:20:01.221Z,8.40
2019-03-01T13:22:48.001Z,5.00
2019-03-01T13:25:16.403Z,7.80
2019-03-01T13:27:44.803Z,11.50
2019-03-01T13:30:53.121Z,6.93
2019-03-01T13:33:21.534Z,9.30
2019-03-01T13:38:23.846Z,8.50
2019-03-01T13:40:54.164Z,13.90
2019-03-01T13:43:23.763Z,12.80
2019-03-01T13:45:53.416Z,10.03
2019-03-01T13:48:22.623Z,10.03
2019-03-01T13:50:51.031Z,18.87
2019-03-01T13:53:38.803Z,6.23
2019-03-01T13:56:26.504Z,8.50
2019-03-01T13:59:14.230Z,7.30
2019-03-01T14:02:04.341Z,7.00
2019-03-01T14:04:32.248Z,15.23
2019-03-01T14:07:00.703Z,12.57
2019-03-01T14:14:59.273Z,25.83
2019-03-01T14:20:36.129Z,10.40
2019-03-01T14:23:44.522Z,8.73
2019-03-01T14:26:15.157Z,14.10
2019-03-01T14:34:04.732Z,10.23
2019-03-01T14:39:20.572Z,10.37
2019-03-01T14:41:48.965Z,7.37
2019-03-01T14:44:36.703Z,7.63
2019-03-01T14:47:24.216Z,10.67
2019-03-01T14:49:53.933Z,14.83
2019-03-01T14:52:41.861Z,12.27
2019-03-01T14:55:50.179Z,12.40
2019-03-01T14:58:59.023Z,17.47
2019-03-01T15:02:07.258Z,12.63
2019-03-01T15:04:54.912Z,14.63
2019-03-01T15:07:23.303Z,6.50
2019-03-01T15:10:14.894Z,8.27
2019-03-01T15:12:43.294Z,15.73
2019-03-01T15:15:13.034Z,8.17
2019-03-01T15:17:41.432Z,10.10
2019-03-01T15:20:12.549Z,10.93
2019-03-01T15:22:40.949Z,22.20
2019-03-01T15:25:11.989Z,14.63
2019-03-01T15:27:40.969Z,13.07
2019-03-01T15:30:12.506Z,12.13
2019-03-01T15:32:40.880Z,10.37
2019-03-01T15:35:09.550Z,12.33
2019-03-01T15:37:38.518Z,16.07
2019-03-01T15:40:09.266Z,23.40
2019-03-01T15:42:37.653Z,6.57
2019-03-01T15:45:09.106Z,10.70
2019-03-01T15:47:37.602Z,16.87
2019-03-01T15:50:11.064Z,11.30
2019-03-01T15:52:39.460Z,15.73
2019-03-01T15:55:11.774Z,14.47
2019-03-01T15:57:39.520Z,13.23
2019-03-01T16:00:18.747Z,8.10
2019-03-01T16:02:49.952Z,9.60
2019-03-01T16:05:17.257Z,6.80
2019-03-01T16:07:45.649Z,9.27
2019-03-01T16:10:16.737Z,10.20
2019-03-01T16:12:45.133Z,16.80
2019-03-01T16:15:16.985Z,12.50
2019-03-01T16:17:45.370Z,8.47
2019-03-01T16:20:16.185Z,5.60
2019-03-01T16:22:44.583Z,13.20
2019-03-01T16:25:17.241Z,13.17
2019-03-01T16:27:44.958Z,13.43
2019-03-01T16:30:18.304Z,13.77
2019-03-01T16:32:50.407Z,19.73
2019-03-01T16:35:18.058Z,20.50
2019-03-01T16:37:51.029Z,8.97
2019-03-01T16:40:19.552Z,9.80
2019-03-01T16:42:52.969Z,10.43
2019-03-01T16:45:21.197Z,15.33
2019-03-01T16:47:48.939Z,12.90
2019-03-01T16:50:18.087Z,8.30
2019-03-01T16:52:46.488Z,10.47
2019-03-01T16:55:27.968Z,15.43
2019-03-01T16:58:06.300Z,9.87
2019-03-01T17:00:26.822Z,7.33
2019-03-01T17:03:17.991Z,18.13
2019-03-01T17:05:44.818Z,12.23
2019-03-01T17:08:13.210Z,21.80
2019-03-01T17:10:42.184Z,12.07
2019-03-01T17:13:10.602Z,19.30
2019-03-01T17:15:39.002Z,18.87
2019-03-01T17:18:11.264Z,18.47
2019-03-01T17:20:38.574Z,11.80
2019-03-01T17:23:07.074Z,7.77
2019-03-01T17:25:35.474Z,9.70
2019-03-01T17:28:04.028Z,10.70
2019-03-01T17:30:32.438Z,14.83
2019-03-01T17:33:00.832Z,20.33
2019-03-01T17:35:29.265Z,9.00
2019-03-01T17:37:57.763Z,19.83
2019-03-01T17:40:29.259Z,16.13
2019-03-01T17:42:57.388Z,15.27
2019-03-01T17:45:26.640Z,22.70
2019-03-01T17:47:55.510Z,10.87
2019-03-01T17:50:23.934Z,12.47
2019-03-01T17:52:52.323Z,16.93
2019-03-01T17:55:24.375Z,15.00
2019-03-01T17:57:53.088Z,15.47
2019-03-01T18:00:36.973Z,18.30
2019-03-01T18:03:05.730Z,20.63
2019-03-01T18:05:36.991Z,16.23
2019-03-01T18:08:04.989Z,17.53
2019-03-01T18:10:33.515Z,24.47
2019-03-01T18:13:01.916Z,14.37
2019-03-01T18:15:30.312Z,18.70
2019-03-01T18:17:58.721Z,17.30
2019-03-01T18:20:27.195Z,25.97
2019-03-01T18:22:55.604Z,23.57
2019-03-01T18:25:26.199Z,16.93
2019-03-01T18:27:54.139Z,20.03
2019-03-01T18:30:33.438Z,19.97
2019-03-01T18:33:01.849Z,12.40
2019-03-01T18:35:30.343Z,12.50
2019-03-01T18:37:58.902Z,11.10
2019-03-01T18:40:27.300Z,29.03
2019-03-01T18:42:55.747Z,24.37
2019-03-01T18:45:25.579Z,12.70
2019-03-01T18:47:53.986Z,14.47
2019-03-01T18:50:37.012Z,20.33
2019-03-01T18:53:05.413Z,24.13
2019-03-01T18:55:33.814Z,26.60
2019-03-01T18:58:02.216Z,24.83
2019-03-01T19:00:36.965Z,19.37
2019-03-01T19:03:06.229Z,24.57
2019-03-01T19:05:36.570Z,22.23
2019-03-01T19:08:06.181Z,15.73
2019-03-01T19:10:35.140Z,18.47
2019-03-01T19:13:04.004Z,26.17
2019-03-01T19:15:32.491Z,19.33
2019-03-01T19:18:00.909Z,21.23
2019-03-01T19:20:31.760Z,20.87
2019-03-01T19:23:00.176Z,29.70
2019-03-01T19:25:28.575Z,24.40
2019-03-01T19:27:56.981Z,22.23
2019-03-01T19:30:26.016Z,20.47
2019-03-01T19:32:54.466Z,30.57
2019-03-01T19:35:28.507Z,18.17
2019-03-01T19:37:53.081Z,21.53
2019-03-01T19:40:22.922Z,20.53
2019-03-01T19:42:51.329Z,27.60
2019-03-01T19:45:20.328Z,23.20
2019-03-01T19:47:48.771Z,15.50
2019-03-01T19:50:25.081Z,20.53
2019-03-01T19:52:52.954Z,23.67
2019-03-01T19:55:21.356Z,23.70
2019-03-01T19:57:49.777Z,20.80
2019-03-01T20:00:28.978Z,21.97
2019-03-01T20:02:57.404Z,27.70
2019-03-01T20:05:31.880Z,20.73
2019-03-01T20:08:00.728Z,24.33
2019-03-01T20:10:29.133Z,17.73
2019-03-01T20:12:58.516Z,35.30
2019-03-01T20:15:28.174Z,27.47
2019-03-01T20:17:56.610Z,24.20
2019-03-01T20:20:33.355Z,25.60
2019-03-01T20:23:01.347Z,23.03
2019-03-01T20:25:29.875Z,21.27
2019-03-01T20:27:58.297Z,15.20
2019-03-01T20:30:30.195Z,18.23
2019-03-01T20:32:58.165Z,23.43
2019-03-01T20:35:27.033Z,18.23
2019-03-01T20:37:55.602Z,17.73
2019-03-01T20:40:26.592Z,17.43
2019-03-01T20:42:56.014Z,17.53
2019-03-01T20:45:32.305Z,16.03
2019-03-01T20:48:00.793Z,24.83
2019-03-01T20:50:29.215Z,18.23
2019-03-01T20:52:57.612Z,17.30
2019-03-01T20:55:26.016Z,24.00
2019-03-01T20:57:54.498Z,22.00
2019-03-01T21:00:29.998Z,22.43
2019-03-01T21:02:58.503Z,28.30
2019-03-01T21:05:28.937Z,18.17
2019-03-01T21:07:57.061Z,16.87
2019-03-01T21:10:46.752Z,17.73
2019-03-01T21:13:14.943Z,15.10
2019-03-01T21:15:43.352Z,13.40
2019-03-01T21:18:34.069Z,18.87
2019-03-01T21:21:20.253Z,30.23
2019-03-01T21:24:07.769Z,22.10
2019-03-01T21:32:11.719Z,28.13
2019-03-01T21:34:41.650Z,21.50
2019-03-01T21:37:29.300Z,17.63
2019-03-01T21:40:16.829Z,11.97
2019-03-01T21:42:45.326Z,25.30
2019-03-01T21:45:33.182Z,14.27
2019-03-01T21:48:22.030Z,21.77
2019-03-01T21:50:51.621Z,21.13
2019-03-01T21:53:39.896Z,11.97
2019-03-01T21:56:09.843Z,18.63
2019-03-01T22:01:45.020Z,15.73
2019-03-01T22:07:08.216Z,15.50
2019-03-01T22:09:56.780Z,16.20
2019-03-01T22:12:45.095Z,14.93
2019-03-01T22:18:25.879Z,15.40
2019-03-01T22:21:16.912Z,18.30
2019-03-01T22:24:02.968Z,17.23
2019-03-01T22:26:50.616Z,11.87
2019-03-01T22:29:38.257Z,12.97
2019-03-01T22:32:07.350Z,14.23
2019-03-01T22:34:36.804Z,25.03
2019-03-01T22:39:58.719Z,16.73
2019-03-01T22:42:49.696Z,25.20
2019-03-01T22:45:56.492Z,6.80
2019-03-01T22:48:24.898Z,10.13
2019-03-01T22:50:53.298Z,15.47
2019-03-01T22:53:42.072Z,16.77
2019-03-01T22:56:30.188Z,9.40
2019-03-01T22:59:38.495Z,10.93
2019-03-01T23:02:46.805Z,8.93
2019-03-01T23:08:21.766Z,10.90
2019-03-01T23:13:42.942Z,12.07
2019-03-01T23:16:11.344Z,11.20
2019-03-01T23:21:47.815Z,18.20
2019-03-01T23:27:22.777Z,12.20
2019-03-01T23:29:54.345Z,9.03
2019-03-01T23:32:40.404Z,15.00
2019-03-01T23:35:08.800Z,13.87
2019-03-01T23:37:38.913Z,8.80
2019-03-01T23:40:47.233Z,11.47
2019-03-01T23:45:53.793Z,19.37
2019-03-01T23:50:54.131Z,12.90
2019-03-01T23:53:41.654Z,19.03
2019-03-01T23:56:10.333Z,15.73
2019-03-01T23:58:38.745Z,13.63
